createdAt,value
2018-03-04T00:01:29.236Z,19.27
2018-03-04T00:03:55.527Z,20.30
2018-03-04T00:06:22.581Z,20.93
2018-03-04T00:08:49.602Z,20.17
2018-03-04T00:11:15.937Z,19.83
2018-03-04T00:13:42.226Z,19.77
2018-03-04T00:16:08.596Z,21.70
2018-03-04T00:18:34.906Z,21.00
2018-03-04T00:21:02.766Z,20.37
2018-03-04T00:23:29.077Z,21.23
2018-03-04T00:25:55.356Z,20.33
2018-03-04T00:28:23.134Z,21.30
2018-03-04T00:30:50.161Z,22.33
2018-03-04T00:33:16.493Z,20.33
2018-03-04T00:35:42.781Z,21.30
2018-03-04T00:38:09.118Z,21.03
2018-03-04T00:40:35.414Z,19.83
2018-03-04T00:43:01.731Z,20.60
2018-03-04T00:45:28.757Z,22.97
2018-03-04T00:47:55.063Z,21.30
2018-03-04T00:50:21.413Z,20.93
2018-03-04T00:52:47.728Z,21.67
2018-03-04T00:55:14.004Z,22.30
2018-03-04T00:57:40.330Z,21.43
2018-03-04T01:00:07.433Z,21.30
2018-03-04T01:02:33.741Z,21.13
2018-03-04T01:05:00.047Z,20.40
2018-03-04T01:07:26.374Z,21.23
2018-03-04T01:09:52.687Z,21.63
2018-03-04T01:12:19.794Z,23.00
2018-03-04T01:14:46.103Z,22.10
2018-03-04T01:17:12.401Z,22.00
2018-03-04T01:19:39.491Z,22.83
2018-03-04T01:22:05.809Z,21.60
2018-03-04T01:24:32.105Z,21.37
2018-03-04T01:26:58.482Z,22.60
2018-03-04T01:29:24.808Z,21.07
2018-03-04T01:31:51.115Z,20.90
2018-03-04T01:34:17.421Z,21.10
2018-03-04T01:36:44.470Z,22.30
2018-03-04T01:39:11.573Z,21.57
2018-03-04T01:41:37.912Z,21.90
2018-03-04T01:44:04.223Z,21.93
2018-03-04T01:46:30.542Z,23.20
2018-03-04T01:48:56.882Z,22.57
2018-03-04T01:51:35.441Z,21.47
2018-03-04T01:54:02.503Z,22.57
2018-03-04T01:56:28.792Z,22.63
2018-03-04T01:58:55.107Z,22.20
2018-03-04T02:01:21.400Z,22.50
2018-03-04T02:03:48.469Z,23.33
2018-03-04T02:06:14.791Z,22.87
2018-03-04T02:08:41.187Z,22.27
2018-03-04T02:11:08.256Z,22.50
2018-03-04T02:13:35.307Z,21.57
2018-03-04T02:16:02.421Z,23.93
2018-03-04T02:18:28.741Z,23.73
2018-03-04T02:20:55.116Z,23.63
2018-03-04T02:23:21.410Z,23.57
2018-03-04T02:25:47.740Z,22.83
2018-03-04T02:28:14.361Z,22.27
2018-03-04T02:30:40.677Z,23.70
2018-03-04T02:33:06.968Z,24.63
2018-03-04T02:35:33.382Z,21.40
2018-03-04T02:37:59.665Z,22.47
2018-03-04T02:40:26.018Z,23.03
2018-03-04T02:42:52.317Z,21.93
2018-03-04T02:45:18.670Z,22.77
2018-03-04T02:47:44.978Z,23.13
2018-03-04T02:50:11.276Z,22.50
2018-03-04T02:52:38.410Z,22.07
2018-03-04T02:55:06.201Z,23.13
2018-03-04T02:57:33.246Z,24.07
2018-03-04T02:59:59.574Z,22.80
2018-03-04T03:02:25.902Z,22.47
2018-03-04T03:04:52.220Z,24.50
2018-03-04T03:07:20.038Z,23.07
2018-03-04T03:09:46.344Z,23.67
2018-03-04T03:12:12.662Z,22.73
2018-03-04T03:14:38.985Z,22.80
2018-03-04T03:17:05.325Z,23.77
2018-03-04T03:19:31.648Z,23.30
2018-03-04T03:21:57.965Z,23.07
2018-03-04T03:24:24.281Z,22.33
2018-03-04T03:26:52.082Z,24.10
2018-03-04T03:29:18.416Z,23.20
2018-03-04T03:31:44.729Z,23.50
2018-03-04T03:34:11.781Z,23.10
2018-03-04T03:36:38.830Z,24.40
2018-03-04T03:39:05.142Z,24.27
2018-03-04T03:41:31.492Z,24.77
2018-03-04T03:43:57.788Z,24.60
2018-03-04T03:46:24.113Z,24.60
2018-03-04T03:48:50.433Z,23.53
2018-03-04T03:51:16.758Z,23.40
2018-03-04T03:53:43.071Z,22.83
2018-03-04T03:56:09.404Z,25.43
2018-03-04T03:58:35.727Z,23.10
2018-03-04T04:01:02.385Z,24.43
2018-03-04T04:03:28.715Z,25.60
2018-03-04T04:05:55.027Z,23.57
2018-03-04T04:08:21.364Z,23.30
2018-03-04T04:10:47.672Z,25.10
2018-03-04T04:13:14.002Z,24.70
2018-03-04T04:15:40.312Z,24.10
2018-03-04T04:18:06.616Z,24.20
2018-03-04T04:20:32.917Z,26.40
2018-03-04T04:22:59.236Z,25.63
2018-03-04T04:25:25.567Z,25.03
2018-03-04T04:27:51.885Z,26.40
2018-03-04T04:30:18.186Z,24.27
2018-03-04T04:32:44.518Z,25.93
2018-03-04T04:35:10.848Z,26.83
2018-03-04T04:37:37.920Z,26.07
2018-03-04T04:40:04.223Z,23.93
2018-03-04T04:42:31.284Z,24.87
2018-03-04T04:44:58.317Z,25.33
2018-03-04T04:47:24.600Z,25.03
2018-03-04T04:49:50.895Z,26.80
2018-03-04T04:52:17.944Z,26.50
2018-03-04T04:54:44.981Z,24.53
2018-03-04T04:57:12.027Z,26.27
2018-03-04T04:59:39.814Z,25.97
2018-03-04T05:02:06.122Z,26.87
2018-03-04T05:04:33.176Z,25.53
2018-03-04T05:06:59.505Z,26.00
2018-03-04T05:09:26.562Z,27.37
2018-03-04T05:11:52.887Z,24.80
2018-03-04T05:14:19.217Z,25.57
2018-03-04T05:16:46.263Z,25.97
2018-03-04T05:19:13.549Z,26.73
2018-03-04T05:21:39.848Z,23.97
2018-03-04T05:24:06.170Z,25.77
2018-03-04T05:26:32.457Z,27.50
2018-03-04T05:28:58.791Z,28.20
2018-03-04T05:31:25.079Z,27.03
2018-03-04T05:33:51.390Z,27.13
2018-03-04T05:36:18.422Z,25.90
2018-03-04T05:38:44.728Z,25.90
2018-03-04T05:41:11.009Z,27.20
2018-03-04T05:43:37.328Z,27.77
2018-03-04T05:46:03.643Z,28.80
2018-03-04T05:48:30.688Z,26.73
2018-03-04T05:50:58.473Z,27.47
2018-03-04T05:53:25.524Z,26.60
2018-03-04T05:55:51.846Z,30.30
2018-03-04T05:58:18.155Z,28.27
2018-03-04T06:00:45.940Z,26.60
2018-03-04T06:03:12.277Z,27.60
2018-03-04T06:05:38.600Z,27.20
2018-03-04T06:08:05.653Z,27.77
2018-03-04T06:10:32.702Z,28.47
2018-03-04T06:12:59.034Z,27.30
2018-03-04T06:15:25.366Z,27.37
2018-03-04T06:17:52.397Z,28.60
2018-03-04T06:20:19.458Z,27.60
2018-03-04T06:22:45.768Z,28.60
2018-03-04T06:25:12.117Z,28.23
2018-03-04T06:27:39.148Z,28.63
2018-03-04T06:30:06.923Z,27.67
2018-03-04T06:32:33.217Z,27.20
2018-03-04T06:34:59.504Z,29.27
2018-03-04T06:37:25.809Z,29.67
2018-03-04T06:39:52.848Z,28.07
2018-03-04T06:42:19.906Z,28.80
2018-03-04T06:44:46.953Z,27.60
2018-03-04T06:47:14.041Z,28.97
2018-03-04T06:49:40.337Z,28.50
2018-03-04T06:52:07.377Z,31.47
2018-03-04T06:54:34.421Z,29.17
2018-03-04T06:57:00.753Z,28.53
2018-03-04T06:59:27.020Z,29.20
2018-03-04T07:01:53.317Z,28.43
2018-03-04T07:04:20.359Z,29.90
2018-03-04T07:06:47.410Z,30.17
2018-03-04T07:09:14.452Z,28.47
2018-03-04T07:11:41.505Z,27.93
2018-03-04T07:14:07.849Z,29.30
2018-03-04T07:16:34.162Z,28.40
2018-03-04T07:19:01.216Z,30.83
2018-03-04T07:21:27.569Z,28.60
2018-03-04T07:23:53.884Z,28.97
2018-03-04T07:26:20.201Z,29.00
2018-03-04T07:28:47.254Z,30.60
2018-03-04T07:31:13.573Z,27.07
2018-03-04T07:33:39.899Z,31.00
2018-03-04T07:36:06.198Z,28.43
2018-03-04T07:38:33.276Z,28.00
2018-03-04T07:40:59.624Z,29.60
2018-03-04T07:43:26.730Z,30.23
2018-03-04T07:45:53.006Z,29.90
2018-03-04T07:48:19.328Z,30.80
2018-03-04T07:50:46.362Z,29.17
2018-03-04T07:53:12.665Z,29.70
2018-03-04T07:55:38.976Z,30.40
2018-03-04T07:58:05.285Z,31.37
2018-03-04T08:00:31.598Z,29.80
2018-03-04T08:02:57.924Z,32.37
2018-03-04T08:05:24.970Z,29.83
2018-03-04T08:07:52.018Z,28.00
2018-03-04T08:10:19.055Z,30.53
2018-03-04T08:12:45.352Z,31.23
2018-03-04T08:15:11.640Z,31.20
2018-03-04T08:17:37.948Z,30.30
2018-03-04T08:20:04.998Z,30.77
2018-03-04T08:22:32.056Z,30.83
2018-03-04T08:25:10.918Z,30.37
2018-03-04T08:27:49.550Z,30.63
2018-03-04T08:30:15.884Z,30.83
2018-03-04T08:32:42.212Z,31.87
2018-03-04T08:35:08.508Z,31.20
2018-03-04T08:37:34.809Z,29.63
2018-03-04T08:40:01.137Z,30.43
2018-03-04T08:42:27.445Z,32.03
2018-03-04T08:44:53.749Z,32.70
2018-03-04T08:47:20.029Z,32.97
2018-03-04T08:49:47.098Z,32.27
2018-03-04T08:52:13.401Z,30.93
2018-03-04T08:54:40.452Z,31.27
2018-03-04T08:57:06.761Z,32.33
2018-03-04T08:59:33.074Z,32.70
2018-03-04T09:01:59.365Z,31.93
2018-03-04T09:04:25.698Z,33.17
2018-03-04T09:06:52.009Z,32.47
2018-03-04T09:09:19.057Z,32.00
2018-03-04T09:11:45.441Z,32.87
2018-03-04T09:14:11.813Z,33.80
2018-03-04T09:16:38.874Z,31.60
2018-03-04T09:19:05.207Z,29.90
2018-03-04T09:21:31.515Z,32.07
2018-03-04T09:23:57.832Z,34.70
2018-03-04T09:26:24.142Z,32.80
2018-03-04T09:28:50.439Z,32.97
2018-03-04T09:31:16.793Z,31.10
2018-03-04T09:33:43.104Z,31.37
2018-03-04T09:36:09.494Z,32.60
2018-03-04T09:38:36.671Z,33.70
2018-03-04T09:41:02.981Z,34.03
2018-03-04T09:43:30.026Z,34.37
2018-03-04T09:45:56.362Z,33.70
2018-03-04T09:48:22.744Z,33.57
2018-03-04T09:50:49.056Z,34.37
2018-03-04T09:53:15.396Z,32.63
2018-03-04T09:55:41.739Z,33.17
2018-03-04T09:58:08.046Z,34.77
2018-03-04T10:00:34.393Z,34.80
2018-03-04T10:03:00.720Z,33.90
2018-03-04T10:05:27.024Z,34.60
2018-03-04T10:07:53.357Z,35.43
2018-03-04T10:10:19.691Z,33.57
2018-03-04T10:12:46.011Z,33.87
2018-03-04T10:15:12.350Z,33.40
2018-03-04T10:17:38.705Z,35.73
2018-03-04T10:20:04.996Z,32.83
2018-03-04T10:22:31.315Z,33.87
2018-03-04T10:24:57.625Z,33.77
2018-03-04T10:27:23.928Z,35.93
2018-03-04T10:29:50.241Z,34.60
2018-03-04T10:32:16.567Z,35.03
2018-03-04T10:34:42.861Z,33.73
2018-03-04T10:37:09.184Z,34.50
2018-03-04T10:39:35.503Z,35.13
2018-03-04T10:42:02.576Z,31.80
2018-03-04T10:44:29.609Z,33.10
2018-03-04T10:46:55.964Z,33.97
2018-03-04T10:49:22.365Z,32.77
2018-03-04T10:51:48.812Z,33.23
2018-03-04T10:54:15.341Z,31.40
2018-03-04T10:56:41.666Z,33.50
2018-03-04T10:59:08.725Z,33.07
2018-03-04T11:01:40.875Z,33.30
2018-03-04T11:04:07.187Z,32.60
2018-03-04T11:06:33.530Z,33.40
2018-03-04T11:08:59.889Z,33.10
2018-03-04T11:11:26.990Z,33.27
2018-03-04T11:13:53.300Z,32.20
2018-03-04T11:16:19.622Z,33.80
2018-03-04T11:18:45.955Z,34.13
2018-03-04T11:21:12.280Z,34.43
2018-03-04T11:23:38.605Z,33.90
2018-03-04T11:26:04.918Z,35.13
2018-03-04T11:28:32.072Z,36.80
2018-03-04T11:30:58.371Z,35.03
2018-03-04T11:33:24.718Z,34.40
2018-03-04T11:35:51.810Z,35.20
2018-03-04T11:38:18.129Z,34.90
2018-03-04T11:40:44.464Z,34.97
2018-03-04T11:43:10.813Z,34.53
2018-03-04T11:45:37.224Z,34.90
2018-03-04T11:48:03.724Z,35.73
2018-03-04T11:50:30.152Z,34.23
2018-03-04T11:52:57.220Z,35.47
2018-03-04T11:55:24.267Z,35.20
2018-03-04T11:57:50.608Z,35.17
2018-03-04T12:00:16.947Z,34.43
2018-03-04T12:02:43.299Z,35.70
2018-03-04T12:05:09.601Z,36.60
2018-03-04T12:07:35.905Z,34.27
2018-03-04T12:10:02.981Z,36.80
2018-03-04T12:12:29.281Z,34.47
2018-03-04T12:14:55.599Z,35.70
2018-03-04T12:17:21.927Z,35.60
2018-03-04T12:19:48.235Z,36.13
2018-03-04T12:22:14.546Z,36.20
2018-03-04T12:24:41.188Z,35.03
2018-03-04T12:27:07.554Z,35.43
2018-03-04T12:29:33.852Z,35.83
2018-03-04T12:32:00.142Z,35.80
2018-03-04T12:34:27.177Z,36.10
2018-03-04T12:36:53.447Z,37.17
2018-03-04T12:39:19.739Z,34.80
2018-03-04T12:41:46.790Z,36.17
2018-03-04T12:44:13.828Z,36.20
2018-03-04T12:46:40.611Z,37.10
2018-03-04T12:49:07.276Z,35.90
2018-03-04T12:51:33.626Z,34.20
2018-03-04T12:54:00.761Z,35.37
2018-03-04T12:56:27.090Z,37.97
2018-03-04T12:58:53.446Z,34.57
2018-03-04T13:01:20.526Z,36.33
2018-03-04T13:03:46.844Z,37.20
2018-03-04T13:06:13.161Z,36.80
2018-03-04T13:08:40.198Z,36.10
2018-03-04T13:11:07.295Z,38.23
2018-03-04T13:13:33.618Z,37.40
2018-03-04T13:15:59.948Z,37.47
2018-03-04T13:18:26.248Z,36.43
2018-03-04T13:20:53.348Z,37.63
2018-03-04T13:23:19.739Z,38.47
2018-03-04T13:25:46.182Z,37.20
2018-03-04T13:28:12.576Z,38.30
2018-03-04T13:30:39.641Z,38.37
2018-03-04T13:33:06.774Z,38.87
2018-03-04T13:35:33.839Z,37.47
2018-03-04T13:38:00.921Z,37.10
2018-03-04T13:40:27.274Z,39.60
2018-03-04T13:42:53.663Z,37.93
2018-03-04T13:45:19.978Z,37.77
2018-03-04T13:47:47.083Z,39.00
2018-03-04T13:50:13.386Z,39.70
2018-03-04T13:52:39.681Z,37.30
2018-03-04T13:55:05.968Z,39.53
2018-03-04T13:57:32.278Z,39.57
2018-03-04T13:59:58.573Z,39.00
2018-03-04T14:02:25.624Z,38.17
2018-03-04T14:04:52.654Z,38.10
2018-03-04T14:07:18.987Z,39.00
2018-03-04T14:09:45.265Z,39.50
2018-03-04T14:12:11.553Z,36.77
2018-03-04T14:14:38.644Z,40.67
2018-03-04T14:17:04.974Z,40.80
2018-03-04T14:19:31.271Z,39.47
2018-03-04T14:21:58.319Z,40.67
2018-03-04T14:24:25.352Z,40.17
2018-03-04T14:26:52.406Z,41.17
2018-03-04T14:29:19.436Z,39.80
2018-03-04T14:31:45.764Z,39.90
2018-03-04T14:34:12.045Z,39.50
2018-03-04T14:36:38.326Z,40.27
2018-03-04T14:39:05.380Z,39.80
2018-03-04T14:41:32.422Z,41.30
2018-03-04T14:43:58.770Z,40.97
2018-03-04T14:46:25.799Z,41.00
2018-03-04T14:48:52.918Z,40.33
2018-03-04T14:51:19.219Z,42.33
2018-03-04T14:53:45.558Z,40.40
2018-03-04T14:56:11.921Z,38.80
2018-03-04T14:58:38.245Z,40.40
2018-03-04T15:01:04.622Z,40.57
2018-03-04T15:03:31.657Z,39.63
2018-03-04T15:05:58.692Z,40.87
2018-03-04T15:08:24.989Z,40.37
2018-03-04T15:10:51.265Z,39.50
2018-03-04T15:13:17.616Z,39.43
2018-03-04T15:15:43.893Z,41.20
2018-03-04T15:18:10.199Z,40.60
2018-03-04T15:20:36.537Z,40.67
2018-03-04T15:23:03.718Z,40.00
2018-03-04T15:25:30.018Z,39.30
2018-03-04T15:27:56.328Z,40.40
2018-03-04T15:30:22.649Z,38.80
2018-03-04T15:32:48.962Z,38.30
2018-03-04T15:35:16.004Z,39.57
2018-03-04T15:37:43.038Z,39.27
2018-03-04T15:40:09.366Z,38.60
2018-03-04T15:42:35.649Z,37.97
2018-03-04T15:45:01.977Z,39.50
2018-03-04T15:47:28.266Z,38.77
2018-03-04T15:49:54.607Z,40.40
2018-03-04T15:52:20.912Z,39.23
2018-03-04T15:54:47.216Z,38.50
2018-03-04T15:57:13.499Z,36.97
2018-03-04T15:59:39.837Z,40.03
2018-03-04T16:02:06.145Z,37.37
2018-03-04T16:04:33.203Z,37.17
2018-03-04T16:07:00.243Z,37.67
2018-03-04T16:09:27.292Z,37.30
2018-03-04T16:11:54.334Z,38.30
2018-03-04T16:14:21.385Z,37.17
2018-03-04T16:16:47.701Z,37.10
2018-03-04T16:19:14.242Z,38.50
2018-03-04T16:21:40.635Z,39.60
2018-03-04T16:24:06.961Z,37.43
2018-03-04T16:26:33.295Z,37.97
2018-03-04T16:28:59.602Z,38.13
2018-03-04T16:31:25.900Z,37.40
2018-03-04T16:33:52.929Z,36.80
2018-03-04T16:36:19.228Z,37.77
2018-03-04T16:38:45.526Z,40.60
2018-03-04T16:41:11.889Z,39.77
2018-03-04T16:43:38.173Z,38.30
2018-03-04T16:46:04.484Z,38.07
2018-03-04T16:48:31.552Z,38.13
2018-03-04T16:50:58.588Z,38.60
2018-03-04T16:53:24.881Z,39.27
2018-03-04T16:55:51.188Z,38.20
2018-03-04T16:58:17.626Z,41.00
2018-03-04T17:00:43.932Z,38.40
2018-03-04T17:03:10.242Z,38.47
2018-03-04T17:05:37.332Z,38.47
2018-03-04T17:08:03.669Z,42.43
2018-03-04T17:10:30.036Z,45.63
2018-03-04T17:12:57.114Z,38.87
2018-03-04T17:15:23.436Z,39.50
2018-03-04T17:17:50.544Z,40.57
2018-03-04T17:20:16.847Z,39.50
2018-03-04T17:22:43.207Z,39.20
2018-03-04T17:25:09.505Z,40.20
2018-03-04T17:27:35.811Z,37.10
2018-03-04T17:30:02.197Z,40.00
2018-03-04T17:32:28.516Z,38.50
2018-03-04T17:34:54.821Z,39.60
2018-03-04T17:37:21.221Z,38.93
2018-03-04T17:39:47.463Z,40.33
2018-03-04T17:42:14.503Z,40.67
2018-03-04T17:44:41.718Z,41.00
2018-03-04T17:47:08.081Z,41.37
2018-03-04T17:49:35.838Z,38.97
2018-03-04T17:52:02.168Z,37.93
2018-03-04T17:54:28.452Z,49.00
2018-03-04T17:56:54.749Z,41.10
2018-03-04T17:59:21.061Z,36.93
2018-03-04T18:01:48.112Z,39.50
2018-03-04T18:04:15.149Z,39.23
2018-03-04T18:06:41.470Z,39.17
2018-03-04T18:09:08.542Z,39.57
2018-03-04T18:11:35.593Z,40.73
2018-03-04T18:14:02.681Z,40.47
2018-03-04T18:16:28.977Z,39.50
2018-03-04T18:18:55.300Z,40.27
2018-03-04T18:21:22.321Z,38.40
2018-03-04T18:23:48.620Z,39.17
2018-03-04T18:26:14.945Z,40.73
2018-03-04T18:28:41.256Z,40.70
2018-03-04T18:31:07.568Z,41.63
2018-03-04T18:33:33.882Z,38.83
2018-03-04T18:36:00.248Z,40.50
2018-03-04T18:38:26.560Z,39.17
2018-03-04T18:40:52.860Z,41.20
2018-03-04T18:43:19.165Z,39.60
2018-03-04T18:45:45.473Z,41.03
2018-03-04T18:48:11.789Z,39.60
2018-03-04T18:50:38.186Z,41.60
2018-03-04T18:53:04.465Z,40.07
2018-03-04T18:55:30.765Z,40.17
2018-03-04T18:57:57.792Z,40.07
2018-03-04T19:00:24.121Z,42.37
2018-03-04T19:02:50.428Z,40.90
2018-03-04T19:05:16.758Z,40.50
2018-03-04T19:07:43.167Z,40.53
2018-03-04T19:10:09.545Z,39.87
2018-03-04T19:12:36.592Z,40.70
2018-03-04T19:15:02.895Z,39.50
2018-03-04T19:17:29.181Z,41.00
2018-03-04T19:19:55.509Z,41.30
2018-03-04T19:22:21.876Z,41.70
2018-03-04T19:24:48.206Z,39.80
2018-03-04T19:27:14.498Z,40.57
2018-03-04T19:29:41.551Z,40.17
2018-03-04T19:32:07.860Z,42.20
2018-03-04T19:34:34.917Z,39.07
2018-03-04T19:37:01.287Z,41.20
2018-03-04T19:39:27.608Z,42.17
2018-03-04T19:41:53.913Z,41.10
2018-03-04T19:44:20.949Z,41.87
2018-03-04T19:46:48.002Z,42.10
2018-03-04T19:49:15.053Z,40.27
2018-03-04T19:51:42.102Z,40.30
2018-03-04T19:54:08.403Z,40.60
2018-03-04T19:56:35.490Z,40.13
2018-03-04T19:59:01.815Z,39.53
2018-03-04T20:01:28.140Z,40.40
2018-03-04T20:03:54.470Z,39.33
2018-03-04T20:06:21.536Z,43.07
2018-03-04T20:08:47.839Z,38.97
2018-03-04T20:11:14.943Z,39.20
2018-03-04T20:13:41.229Z,42.07
2018-03-04T20:16:07.607Z,42.07
2018-03-04T20:18:34.020Z,39.20
2018-03-04T20:21:00.426Z,40.40
2018-03-04T20:23:26.758Z,38.93
2018-03-04T20:25:53.090Z,39.63
2018-03-04T20:28:20.186Z,40.90
2018-03-04T20:30:46.532Z,39.33
2018-03-04T20:33:12.881Z,39.80
2018-03-04T20:35:39.916Z,38.40
2018-03-04T20:38:06.236Z,38.43
2018-03-04T20:40:34.035Z,39.63
2018-03-04T20:43:01.080Z,38.93
2018-03-04T20:45:28.119Z,40.17
2018-03-04T20:47:54.514Z,39.30
2018-03-04T20:50:20.935Z,38.53
2018-03-04T20:52:47.224Z,38.20
2018-03-04T20:55:13.524Z,39.17
2018-03-04T20:57:39.858Z,37.40
2018-03-04T21:00:06.231Z,38.40
2018-03-04T21:02:32.532Z,37.50
2018-03-04T21:04:59.567Z,40.27
2018-03-04T21:07:25.870Z,39.40
2018-03-04T21:09:52.195Z,37.73
2018-03-04T21:12:18.528Z,37.50
2018-03-04T21:14:44.813Z,36.03
2018-03-04T21:17:11.910Z,39.40
2018-03-04T21:19:38.265Z,38.03
2018-03-04T21:22:04.636Z,38.60
2018-03-04T21:24:30.982Z,38.17
2018-03-04T21:26:57.270Z,37.30
2018-03-04T21:29:24.321Z,36.53
2018-03-04T21:31:51.380Z,38.53
2018-03-04T21:34:17.690Z,37.50
2018-03-04T21:36:43.957Z,36.50
2018-03-04T21:39:10.276Z,39.33
2018-03-04T21:41:36.584Z,37.40
2018-03-04T21:44:03.635Z,37.60
2018-03-04T21:46:29.950Z,36.80
2018-03-04T21:48:56.251Z,37.10
2018-03-04T21:51:22.542Z,39.27
2018-03-04T21:53:48.866Z,36.97
2018-03-04T21:56:15.164Z,37.60
2018-03-04T21:58:41.460Z,36.77
2018-03-04T22:01:08.300Z,36.37
2018-03-04T22:03:34.623Z,37.33
2018-03-04T22:06:00.933Z,36.33
2018-03-04T22:08:27.234Z,38.77
2018-03-04T22:10:53.538Z,39.20
2018-03-04T22:13:19.835Z,36.47
2018-03-04T22:15:46.143Z,39.13
2018-03-04T22:18:12.463Z,38.20
2018-03-04T22:20:39.505Z,36.57
2018-03-04T22:23:06.563Z,36.90
2018-03-04T22:25:32.889Z,36.77
2018-03-04T22:27:59.954Z,39.57
2018-03-04T22:30:26.253Z,37.33
2018-03-04T22:32:52.544Z,38.17
2018-03-04T22:35:18.846Z,38.70
2018-03-04T22:37:45.140Z,36.23
2018-03-04T22:40:11.442Z,38.27
2018-03-04T22:42:37.717Z,37.47
2018-03-04T22:45:04.752Z,37.33
2018-03-04T22:47:31.000Z,36.80
2018-03-04T22:49:57.263Z,38.17
2018-03-04T22:52:23.535Z,35.57
2018-03-04T22:54:50.584Z,40.00
2018-03-04T22:57:16.874Z,37.53
2018-03-04T22:59:43.175Z,37.17
2018-03-04T23:02:09.470Z,39.40
2018-03-04T23:04:36.532Z,36.73
2018-03-04T23:07:02.794Z,36.60
2018-03-04T23:09:29.794Z,38.93
2018-03-04T23:11:56.841Z,38.40
2018-03-04T23:14:23.991Z,37.63
2018-03-04T23:16:50.254Z,39.13
2018-03-04T23:19:16.538Z,37.23
2018-03-04T23:21:42.848Z,38.10
2018-03-04T23:24:09.120Z,37.30
2018-03-04T23:26:35.390Z,38.00
2018-03-04T23:29:01.671Z,38.63
2018-03-04T23:31:28.728Z,39.00
2018-03-04T23:33:55.004Z,37.13
2018-03-04T23:36:21.289Z,37.43
2018-03-04T23:38:47.574Z,38.60
2018-03-04T23:41:13.836Z,37.10
2018-03-04T23:43:40.101Z,38.70
2018-03-04T23:46:06.393Z,38.80
2018-03-04T23:48:32.665Z,39.00
2018-03-04T23:50:59.291Z,38.50
2018-03-04T23:53:26.303Z,36.53
2018-03-04T23:55:52.591Z,37.50
2018-03-04T23:58:18.873Z,38.20
